createdAt,value
2018-07-23T00:02:19.176Z,88.20
2018-07-23T00:04:46.479Z,87.70
2018-07-23T00:07:13.815Z,87.70
2018-07-23T00:09:41.128Z,88.00
2018-07-23T00:12:08.455Z,88.20
2018-07-23T00:14:35.772Z,87.80
2018-07-23T00:17:03.098Z,87.80
2018-07-23T00:19:30.431Z,87.60
2018-07-23T00:21:57.767Z,87.90
2018-07-23T00:24:25.181Z,87.60
2018-07-23T00:26:52.551Z,87.40
2018-07-23T00:29:19.904Z,87.70
2018-07-23T00:31:47.207Z,88.10
2018-07-23T00:34:14.520Z,88.00
2018-07-23T00:36:41.862Z,87.60
2018-07-23T00:39:09.183Z,87.00
2018-07-23T00:41:36.551Z,87.50
2018-07-23T00:44:03.919Z,88.00
2018-07-23T00:46:31.230Z,87.70
2018-07-23T00:48:58.560Z,87.60
2018-07-23T00:51:25.987Z,88.10
2018-07-23T00:53:53.376Z,88.10
2018-07-23T00:56:20.705Z,88.20
2018-07-23T00:58:48.071Z,87.70
2018-07-23T01:01:15.389Z,87.40
2018-07-23T01:03:42.741Z,88.00
2018-07-23T01:06:10.066Z,88.00
2018-07-23T01:08:37.393Z,88.00
2018-07-23T01:11:04.732Z,88.10
2018-07-23T01:13:32.078Z,87.90
2018-07-23T01:15:59.433Z,88.00
2018-07-23T01:18:26.787Z,88.20
2018-07-23T01:20:54.127Z,87.90
2018-07-23T01:23:21.684Z,88.00
2018-07-23T01:25:48.995Z,87.70
2018-07-23T01:28:16.327Z,87.70
2018-07-23T01:30:43.682Z,87.70
2018-07-23T01:33:11.025Z,87.50
2018-07-23T01:35:38.335Z,87.80
2018-07-23T01:38:05.650Z,87.30
2018-07-23T01:40:33.014Z,87.20
2018-07-23T01:43:00.368Z,87.30
2018-07-23T01:45:27.704Z,87.30
2018-07-23T01:47:55.052Z,87.00
2018-07-23T01:50:22.921Z,87.10
2018-07-23T01:52:50.240Z,87.20
2018-07-23T01:55:17.565Z,87.40
2018-07-23T01:57:44.876Z,87.60
2018-07-23T02:00:12.251Z,87.40
2018-07-23T02:02:39.601Z,87.80
2018-07-23T02:05:06.902Z,87.80
2018-07-23T02:07:34.248Z,87.60
2018-07-23T02:10:01.558Z,87.30
2018-07-23T02:12:28.951Z,87.60
2018-07-23T02:14:56.302Z,87.60
2018-07-23T02:17:23.651Z,87.00
2018-07-23T02:19:51.010Z,87.40
2018-07-23T02:22:18.328Z,87.60
2018-07-23T02:24:45.666Z,87.60
2018-07-23T02:27:12.989Z,87.70
2018-07-23T02:29:40.322Z,87.50
2018-07-23T02:32:07.657Z,87.50
2018-07-23T02:34:35.001Z,87.70
2018-07-23T02:37:02.324Z,87.50
2018-07-23T02:39:29.651Z,87.50
2018-07-23T02:41:57.014Z,87.50
2018-07-23T02:44:24.381Z,87.20
2018-07-23T02:46:51.692Z,86.80
2018-07-23T02:49:19.051Z,86.90
2018-07-23T02:51:46.367Z,86.80
2018-07-23T02:54:13.688Z,87.00
2018-07-23T02:56:41.037Z,87.50
2018-07-23T02:59:08.368Z,87.10
2018-07-23T03:01:35.687Z,87.30
2018-07-23T03:04:03.089Z,87.40
2018-07-23T03:06:30.435Z,87.70
2018-07-23T03:08:57.796Z,87.80
2018-07-23T03:11:25.168Z,87.20
2018-07-23T03:13:52.853Z,87.20
2018-07-23T03:16:20.193Z,87.30
2018-07-23T03:18:47.519Z,87.40
2018-07-23T03:21:14.854Z,86.80
2018-07-23T03:23:42.212Z,86.90
2018-07-23T03:26:09.528Z,86.90
2018-07-23T03:28:36.869Z,87.40
2018-07-23T03:31:04.167Z,87.70
2018-07-23T03:33:31.496Z,87.50
2018-07-23T03:35:58.831Z,87.20
2018-07-23T03:38:26.215Z,87.60
2018-07-23T03:40:53.652Z,87.70
2018-07-23T03:43:20.972Z,88.10
2018-07-23T03:45:48.325Z,88.20
2018-07-23T03:48:15.666Z,88.50
2018-07-23T03:50:43.066Z,88.30
2018-07-23T03:53:10.407Z,88.00
2018-07-23T03:55:37.718Z,88.00
2018-07-23T03:58:05.372Z,88.20
2018-07-23T04:00:32.698Z,88.40
2018-07-23T04:03:00.022Z,88.40
2018-07-23T04:05:27.378Z,88.10
2018-07-23T04:07:54.722Z,88.40
2018-07-23T04:10:22.074Z,88.30
2018-07-23T04:12:49.368Z,88.40
2018-07-23T04:15:16.703Z,87.60
2018-07-23T04:17:44.053Z,87.40
2018-07-23T04:20:11.409Z,87.50
2018-07-23T04:22:38.761Z,88.00
2018-07-23T04:25:06.073Z,88.10
2018-07-23T04:27:33.402Z,87.90
2018-07-23T04:30:00.804Z,88.00
2018-07-23T04:32:28.141Z,87.90
2018-07-23T04:34:55.516Z,87.30
2018-07-23T04:37:23.095Z,86.90
2018-07-23T04:39:50.443Z,87.00
2018-07-23T04:42:17.830Z,87.40
2018-07-23T04:44:45.132Z,87.60
2018-07-23T04:47:12.493Z,86.50
2018-07-23T04:49:39.839Z,86.30
2018-07-23T04:52:07.177Z,86.20
2018-07-23T04:54:34.507Z,86.30
2018-07-23T04:57:01.885Z,86.60
2018-07-23T04:59:29.187Z,87.00
2018-07-23T05:01:56.546Z,87.00
2018-07-23T05:04:23.926Z,86.90
2018-07-23T05:06:51.323Z,86.40
2018-07-23T05:09:18.979Z,86.30
2018-07-23T05:11:46.311Z,86.50
2018-07-23T05:14:13.734Z,86.80
2018-07-23T05:16:41.101Z,86.70
2018-07-23T05:19:08.492Z,86.90
2018-07-23T05:21:35.813Z,86.80
2018-07-23T05:24:03.215Z,86.10
2018-07-23T05:26:30.563Z,85.90
2018-07-23T05:28:57.902Z,85.20
2018-07-23T05:33:52.446Z,85.20
2018-07-23T05:36:19.782Z,85.20
2018-07-23T05:38:47.162Z,85.50
2018-07-23T05:41:14.470Z,85.10
2018-07-23T05:43:41.777Z,85.00
2018-07-23T05:46:09.122Z,84.30
2018-07-23T05:48:36.411Z,83.70
2018-07-23T05:51:03.763Z,83.60
2018-07-23T05:53:31.071Z,84.00
2018-07-23T05:55:58.488Z,84.10
2018-07-23T05:58:25.846Z,83.80
2018-07-23T06:00:53.230Z,83.80
2018-07-23T06:03:20.560Z,83.90
2018-07-23T06:05:47.915Z,83.80
2018-07-23T06:08:15.258Z,83.80
2018-07-23T06:10:42.611Z,83.80
2018-07-23T06:13:09.927Z,83.60
2018-07-23T06:15:37.238Z,83.40
2018-07-23T06:18:04.638Z,83.30
2018-07-23T06:20:31.971Z,82.90
2018-07-23T06:22:59.315Z,82.80
2018-07-23T06:25:26.727Z,83.10
2018-07-23T06:27:54.118Z,82.80
2018-07-23T06:30:21.558Z,82.50
2018-07-23T06:32:48.872Z,81.70
2018-07-23T06:35:16.274Z,81.80
2018-07-23T06:37:43.591Z,81.60
2018-07-23T06:40:10.942Z,81.70
2018-07-23T06:42:38.312Z,81.30
2018-07-23T06:45:06.641Z,81.50
2018-07-23T06:47:34.009Z,81.50
2018-07-23T06:50:01.302Z,81.40
2018-07-23T06:52:28.654Z,81.00
2018-07-23T06:54:56.008Z,80.40
2018-07-23T06:57:23.618Z,79.90
2018-07-23T06:59:50.912Z,79.30
2018-07-23T07:02:18.252Z,78.90
2018-07-23T07:04:45.614Z,79.30
2018-07-23T07:07:12.981Z,79.10
2018-07-23T07:09:40.322Z,78.80
2018-07-23T07:12:07.652Z,79.00
2018-07-23T07:14:35.000Z,78.80
2018-07-23T07:17:02.353Z,78.60
2018-07-23T07:19:29.687Z,78.90
2018-07-23T07:21:57.097Z,78.70
2018-07-23T07:24:24.495Z,78.70
2018-07-23T07:26:51.823Z,77.80
2018-07-23T07:29:19.597Z,78.50
2018-07-23T07:31:46.919Z,79.10
2018-07-23T07:34:14.260Z,79.10
2018-07-23T07:36:41.590Z,79.00
2018-07-23T07:39:09.074Z,78.30
2018-07-23T07:41:36.421Z,78.50
2018-07-23T07:44:03.802Z,77.90
2018-07-23T07:46:31.174Z,77.10
2018-07-23T07:48:58.695Z,75.80
2018-07-23T07:51:29.041Z,75.10
2018-07-23T07:53:57.565Z,75.50
2018-07-23T07:56:26.552Z,76.10
2018-07-23T07:58:54.503Z,74.70
2018-07-23T08:01:21.863Z,70.40
2018-07-23T08:03:49.199Z,68.80
2018-07-23T08:06:16.572Z,69.00
2018-07-23T08:08:43.964Z,68.00
2018-07-23T08:11:11.287Z,68.00
2018-07-23T08:13:38.605Z,68.60
2018-07-23T08:16:05.961Z,68.00
2018-07-23T08:18:33.290Z,67.00
2018-07-23T08:21:00.619Z,68.30
2018-07-23T08:23:28.067Z,69.50
2018-07-23T08:25:55.811Z,68.20
2018-07-23T08:28:23.215Z,66.90
2018-07-23T08:30:50.549Z,66.80
2018-07-23T08:33:17.872Z,65.90
2018-07-23T08:35:45.220Z,66.30
2018-07-23T08:38:12.524Z,65.80
2018-07-23T08:40:39.872Z,66.40
2018-07-23T08:43:07.267Z,66.80
2018-07-23T08:45:34.530Z,66.40
2018-07-23T08:48:01.871Z,65.20
2018-07-23T08:50:30.015Z,63.80
2018-07-23T08:52:57.440Z,64.50
2018-07-23T08:55:24.938Z,65.10
2018-07-23T08:57:52.284Z,63.90
2018-07-23T09:00:19.603Z,63.70
2018-07-23T09:02:46.914Z,63.60
2018-07-23T09:05:14.248Z,63.30
2018-07-23T09:07:41.555Z,63.50
2018-07-23T09:10:08.902Z,65.00
2018-07-23T09:12:36.239Z,64.10
2018-07-23T09:15:03.591Z,62.90
2018-07-23T09:17:30.920Z,63.00
2018-07-23T09:19:58.262Z,62.90
2018-07-23T09:22:25.639Z,62.80
2018-07-23T09:24:52.996Z,63.80
2018-07-23T09:27:20.338Z,63.10
2018-07-23T09:29:47.648Z,63.40
2018-07-23T09:32:14.994Z,62.50
2018-07-23T09:34:42.363Z,62.60
2018-07-23T09:37:09.701Z,62.70
2018-07-23T09:39:37.047Z,63.00
2018-07-23T09:42:04.376Z,61.20
2018-07-23T09:44:31.699Z,61.50
2018-07-23T09:46:59.101Z,61.90
2018-07-23T09:49:26.440Z,61.70
2018-07-23T09:51:54.291Z,61.70
2018-07-23T09:54:21.596Z,60.70
2018-07-23T09:56:48.918Z,60.30
2018-07-23T09:59:16.297Z,60.70
2018-07-23T10:04:10.796Z,60.60
2018-07-23T10:06:38.146Z,60.00
2018-07-23T10:09:07.019Z,60.30
2018-07-23T10:11:34.374Z,60.30
2018-07-23T10:14:01.697Z,60.40
2018-07-23T10:16:29.081Z,61.10
2018-07-23T10:18:56.425Z,60.30
2018-07-23T10:21:23.851Z,60.00
2018-07-23T10:23:51.275Z,59.10
2018-07-23T10:26:18.614Z,60.20
2018-07-23T10:28:46.035Z,60.10
2018-07-23T10:31:13.431Z,59.50
2018-07-23T10:33:40.738Z,58.70
2018-07-23T10:36:08.070Z,58.80
2018-07-23T10:38:35.487Z,58.80
2018-07-23T10:41:02.838Z,58.80
2018-07-23T10:43:30.171Z,58.20
2018-07-23T10:45:57.510Z,58.10
2018-07-23T10:48:24.926Z,59.10
2018-07-23T10:50:52.392Z,58.80
2018-07-23T10:53:20.162Z,59.10
2018-07-23T10:55:47.479Z,59.30
2018-07-23T10:58:14.860Z,58.70
2018-07-23T11:00:42.276Z,58.30
2018-07-23T11:03:09.577Z,58.30
2018-07-23T11:05:36.887Z,58.20
2018-07-23T11:08:04.279Z,58.40
2018-07-23T11:10:31.637Z,60.20
2018-07-23T11:12:59.040Z,58.60
2018-07-23T11:15:26.424Z,58.60
2018-07-23T11:17:53.775Z,58.30
2018-07-23T11:20:21.145Z,57.60
2018-07-23T11:22:48.441Z,56.40
2018-07-23T11:25:38.595Z,56.30
2018-07-23T11:27:43.657Z,56.30
2018-07-23T11:30:10.977Z,57.00
2018-07-23T11:32:38.363Z,56.80
2018-07-23T11:35:05.756Z,55.30
2018-07-23T11:37:33.115Z,56.50
2018-07-23T11:40:00.430Z,56.30
2018-07-23T11:42:27.800Z,55.90
2018-07-23T11:44:55.320Z,56.00
2018-07-23T11:47:22.679Z,55.30
2018-07-23T11:49:50.003Z,55.20
2018-07-23T11:52:17.316Z,55.00
2018-07-23T11:54:44.639Z,54.70
2018-07-23T11:57:11.943Z,54.70
2018-07-23T11:59:39.270Z,55.80
2018-07-23T12:02:07.033Z,56.70
2018-07-23T12:04:34.463Z,55.10
2018-07-23T12:07:01.735Z,55.40
2018-07-23T12:09:29.172Z,55.00
2018-07-23T12:11:56.649Z,55.70
2018-07-23T12:14:23.944Z,54.90
2018-07-23T12:16:51.272Z,54.70
2018-07-23T12:19:18.591Z,55.10
2018-07-23T12:21:45.962Z,54.70
2018-07-23T12:24:13.299Z,54.90
2018-07-23T12:26:40.610Z,54.40
2018-07-23T12:29:07.934Z,54.50
2018-07-23T12:31:35.261Z,54.60
2018-07-23T12:34:02.591Z,54.30
2018-07-23T12:36:30.007Z,54.00
2018-07-23T12:38:57.394Z,52.80
2018-07-23T12:41:24.755Z,53.30
2018-07-23T12:43:52.075Z,54.00
2018-07-23T12:46:19.432Z,53.70
2018-07-23T12:48:46.809Z,55.30
2018-07-23T12:51:14.146Z,55.00
2018-07-23T12:53:41.486Z,54.10
2018-07-23T12:56:08.842Z,53.40
2018-07-23T12:58:36.198Z,53.70
2018-07-23T13:01:03.558Z,52.70
2018-07-23T13:03:30.904Z,53.90
2018-07-23T13:05:58.288Z,53.30
2018-07-23T13:08:25.598Z,53.90
2018-07-23T13:10:52.947Z,53.80
2018-07-23T13:13:20.297Z,54.60
2018-07-23T13:15:47.599Z,54.40
2018-07-23T13:18:14.952Z,54.50
2018-07-23T13:20:42.319Z,54.30
2018-07-23T13:23:09.622Z,54.10
2018-07-23T13:25:37.002Z,53.50
2018-07-23T13:28:04.508Z,53.70
2018-07-23T13:30:31.854Z,54.50
2018-07-23T13:32:59.242Z,53.90
2018-07-23T13:35:26.589Z,53.30
2018-07-23T13:37:53.947Z,53.40
2018-07-23T13:40:21.256Z,53.10
2018-07-23T13:42:48.603Z,53.80
2018-07-23T13:45:15.915Z,52.90
2018-07-23T13:47:43.253Z,53.10
2018-07-23T13:50:10.580Z,53.60
2018-07-23T13:52:37.908Z,53.50
2018-07-23T13:55:05.415Z,52.60
2018-07-23T13:57:32.780Z,52.50
2018-07-23T14:00:00.107Z,53.40
2018-07-23T14:02:27.465Z,53.30
2018-07-23T14:04:54.826Z,52.00
2018-07-23T14:07:22.289Z,51.30
2018-07-23T14:09:49.643Z,51.40
2018-07-23T14:12:17.027Z,51.90
2018-07-23T14:14:44.343Z,51.80
2018-07-23T14:17:11.722Z,51.40
2018-07-23T14:19:39.047Z,51.40
2018-07-23T14:22:06.430Z,51.90
2018-07-23T14:24:33.760Z,51.30
2018-07-23T14:27:01.221Z,50.90
2018-07-23T14:29:28.636Z,51.70
2018-07-23T14:31:56.033Z,51.80
2018-07-23T14:34:23.423Z,51.50
2018-07-23T14:36:50.766Z,51.20
2018-07-23T14:39:18.121Z,51.50
2018-07-23T14:41:45.624Z,51.80
2018-07-23T14:44:12.981Z,51.90
2018-07-23T14:46:40.349Z,50.70
2018-07-23T14:49:07.662Z,50.10
2018-07-23T14:51:35.014Z,50.30
2018-07-23T14:54:02.377Z,50.80
2018-07-23T14:56:29.781Z,50.20
2018-07-23T14:58:57.268Z,49.90
2018-07-23T15:01:24.629Z,50.00
2018-07-23T15:03:52.047Z,49.10
2018-07-23T15:06:19.379Z,49.80
2018-07-23T15:08:46.686Z,50.60
2018-07-23T15:11:14.094Z,50.70
2018-07-23T15:13:41.519Z,51.20
2018-07-23T15:16:09.009Z,51.50
2018-07-23T15:18:36.318Z,51.40
2018-07-23T15:21:03.803Z,51.90
2018-07-23T15:23:31.185Z,51.70
2018-07-23T15:25:58.789Z,51.00
2018-07-23T15:28:26.456Z,51.20
2018-07-23T15:30:53.833Z,51.00
2018-07-23T15:33:21.187Z,51.30
2018-07-23T15:35:48.552Z,51.00
2018-07-23T15:38:15.862Z,51.30
2018-07-23T15:40:43.275Z,50.70
2018-07-23T15:43:10.618Z,51.20
2018-07-23T15:45:38.195Z,51.30
2018-07-23T15:48:05.389Z,51.20
2018-07-23T15:50:32.798Z,51.90
2018-07-23T15:53:00.159Z,51.70
2018-07-23T15:55:27.658Z,52.00
2018-07-23T15:57:55.031Z,52.00
2018-07-23T16:00:22.348Z,53.20
2018-07-23T16:02:49.774Z,53.00
2018-07-23T16:05:17.163Z,52.60
2018-07-23T16:07:44.491Z,53.40
2018-07-23T16:10:11.828Z,52.90
2018-07-23T16:12:39.244Z,53.70
2018-07-23T16:15:06.635Z,53.50
2018-07-23T16:17:33.958Z,53.40
2018-07-23T16:20:01.335Z,53.00
2018-07-23T16:22:28.688Z,53.10
2018-07-23T16:24:56.106Z,52.80
2018-07-23T16:27:23.522Z,52.60
2018-07-23T16:29:51.390Z,53.00
2018-07-23T16:32:19.099Z,52.50
2018-07-23T16:34:46.484Z,52.80
2018-07-23T16:37:13.807Z,51.90
2018-07-23T16:39:41.244Z,51.60
2018-07-23T16:42:08.605Z,51.20
2018-07-23T16:47:03.253Z,51.20
2018-07-23T16:49:30.594Z,51.20
2018-07-23T16:51:58.295Z,50.90
2018-07-23T16:54:25.655Z,50.90
2018-07-23T16:56:53.089Z,51.30
2018-07-23T16:59:20.442Z,50.50
2018-07-23T17:01:47.858Z,50.20
2018-07-23T17:04:15.313Z,49.40
2018-07-23T17:09:09.904Z,49.10
2018-07-23T17:11:38.029Z,48.90
2018-07-23T17:14:05.478Z,48.40
2018-07-23T17:16:32.839Z,48.80
2018-07-23T17:19:00.187Z,48.70
2018-07-23T17:21:27.594Z,48.40
2018-07-23T17:23:55.070Z,48.80
2018-07-23T17:26:22.426Z,48.30
2018-07-23T17:28:49.948Z,49.10
2018-07-23T17:31:17.240Z,48.70
2018-07-23T17:33:44.592Z,49.20
2018-07-23T17:36:11.976Z,48.80
2018-07-23T17:38:39.379Z,48.70
2018-07-23T17:41:06.804Z,48.20
2018-07-23T17:43:34.606Z,48.30
2018-07-23T17:46:01.983Z,48.10
2018-07-23T17:48:29.359Z,48.20
2018-07-23T17:50:56.802Z,48.80
2018-07-23T17:53:24.142Z,48.30
2018-07-23T17:55:51.461Z,48.60
2018-07-23T17:58:18.816Z,48.30
2018-07-23T18:00:46.155Z,48.40
2018-07-23T18:03:13.800Z,48.70
2018-07-23T18:05:41.151Z,49.10
2018-07-23T18:08:08.478Z,48.80
2018-07-23T18:10:36.001Z,48.70
2018-07-23T18:13:03.832Z,48.70
2018-07-23T18:15:31.217Z,48.80
2018-07-23T18:17:58.619Z,48.90
2018-07-23T18:20:26.100Z,49.20
2018-07-23T18:22:53.904Z,50.10
2018-07-23T18:25:21.245Z,50.70
2018-07-23T18:27:48.984Z,50.70
2018-07-23T18:30:16.340Z,51.60
2018-07-23T18:32:43.777Z,52.10
2018-07-23T18:35:11.096Z,52.50
2018-07-23T18:37:38.405Z,53.10
2018-07-23T18:40:05.763Z,53.70
2018-07-23T18:42:34.015Z,54.00
2018-07-23T18:45:01.278Z,54.10
2018-07-23T18:47:28.619Z,54.10
2018-07-23T18:49:57.773Z,55.00
2018-07-23T18:52:25.310Z,54.80
2018-07-23T18:54:52.667Z,55.10
2018-07-23T18:57:19.991Z,54.90
2018-07-23T18:59:47.395Z,55.10
2018-07-23T19:02:14.654Z,55.40
2018-07-23T19:04:42.029Z,55.70
2018-07-23T19:07:09.361Z,56.00
2018-07-23T19:09:36.646Z,56.10
2018-07-23T19:12:04.488Z,56.60
2018-07-23T19:14:31.852Z,56.70
2018-07-23T19:16:59.298Z,57.20
2018-07-23T19:21:54.395Z,57.50
2018-07-23T19:24:21.737Z,57.80
2018-07-23T19:26:49.278Z,58.40
2018-07-23T19:29:16.617Z,58.70
2018-07-23T19:31:44.261Z,58.70
2018-07-23T19:34:11.566Z,58.90
2018-07-23T19:36:38.922Z,58.70
2018-07-23T19:39:08.146Z,59.10
2018-07-23T19:41:35.740Z,59.20
2018-07-23T19:44:03.245Z,59.60
2018-07-23T19:46:30.896Z,60.00
2018-07-23T19:48:58.636Z,60.10
2018-07-23T19:51:26.094Z,60.40
2018-07-23T19:53:54.724Z,60.80
2018-07-23T19:56:22.038Z,60.70
2018-07-23T19:58:49.414Z,61.00
2018-07-23T20:01:16.778Z,61.30
2018-07-23T20:03:44.111Z,61.80
2018-07-23T20:06:20.019Z,62.20
2018-07-23T20:08:48.424Z,62.30
2018-07-23T20:11:16.066Z,62.80
2018-07-23T20:13:43.395Z,63.30
2018-07-23T20:16:11.060Z,63.20
2018-07-23T20:18:38.492Z,63.30
2018-07-23T20:21:05.917Z,63.80
2018-07-23T20:23:33.202Z,64.00
2018-07-23T20:26:00.550Z,64.50
2018-07-23T20:28:27.929Z,64.40
2018-07-23T20:30:55.248Z,64.40
2018-07-23T20:33:23.111Z,64.30
2018-07-23T20:35:51.079Z,64.00
2018-07-23T20:38:18.407Z,64.30
2018-07-23T20:40:47.103Z,64.20
2018-07-23T20:43:14.442Z,64.30
2018-07-23T20:45:41.818Z,64.40
2018-07-23T20:48:09.099Z,64.70
2018-07-23T20:50:36.781Z,64.40
2018-07-23T20:53:04.121Z,64.30
2018-07-23T20:55:31.458Z,64.60
2018-07-23T20:57:58.880Z,64.60
2018-07-23T21:00:26.304Z,65.00
2018-07-23T21:02:53.649Z,65.20
2018-07-23T21:05:20.975Z,64.80
2018-07-23T21:07:48.286Z,65.50
2018-07-23T21:10:15.646Z,65.30
2018-07-23T21:12:42.949Z,64.40
2018-07-23T21:15:10.293Z,65.30
2018-07-23T21:17:37.622Z,68.50
2018-07-23T21:20:06.142Z,68.90
2018-07-23T21:22:33.455Z,72.90
2018-07-23T21:25:00.824Z,70.20
2018-07-23T21:27:28.184Z,70.00
2018-07-23T21:29:55.511Z,68.60
2018-07-23T21:32:22.841Z,69.00
2018-07-23T21:34:50.134Z,69.10
2018-07-23T21:37:17.474Z,70.90
2018-07-23T21:39:44.942Z,70.20
2018-07-23T21:42:12.290Z,70.90
2018-07-23T21:44:39.616Z,72.10
2018-07-23T21:47:06.966Z,71.80
2018-07-23T21:49:34.343Z,72.20
2018-07-23T21:52:01.675Z,71.50
2018-07-23T21:56:56.238Z,71.30
2018-07-23T21:59:23.597Z,70.20
2018-07-23T22:01:50.934Z,70.90
2018-07-23T22:04:18.246Z,71.30
2018-07-23T22:06:45.637Z,72.20
2018-07-23T22:09:12.976Z,72.20
2018-07-23T22:11:40.372Z,72.00
2018-07-23T22:14:07.740Z,71.60
2018-07-23T22:16:35.126Z,73.10
2018-07-23T22:19:02.488Z,73.40
2018-07-23T22:21:29.910Z,72.60
2018-07-23T22:23:57.275Z,72.70
2018-07-23T22:26:24.668Z,72.50
2018-07-23T22:28:51.991Z,74.00
2018-07-23T22:31:19.411Z,72.00
2018-07-23T22:33:46.778Z,71.70
2018-07-23T22:36:14.138Z,72.70
2018-07-23T22:38:41.462Z,72.60
2018-07-23T22:41:08.794Z,73.60
2018-07-23T22:43:36.134Z,72.90
2018-07-23T22:46:03.459Z,72.90
2018-07-23T22:48:30.888Z,73.60
2018-07-23T22:50:58.253Z,73.60
2018-07-23T22:53:25.655Z,74.00
2018-07-23T22:55:53.006Z,73.70
2018-07-23T22:58:20.358Z,74.00
2018-07-23T23:00:47.703Z,74.60
2018-07-23T23:03:15.271Z,75.10
2018-07-23T23:05:42.786Z,75.30
2018-07-23T23:08:10.099Z,76.00
2018-07-23T23:10:37.426Z,76.20
2018-07-23T23:13:04.850Z,76.20
2018-07-23T23:15:32.195Z,76.10
2018-07-23T23:17:59.545Z,75.10
2018-07-23T23:20:26.923Z,75.60
2018-07-23T23:22:54.318Z,74.80
2018-07-23T23:25:21.659Z,75.50
2018-07-23T23:27:49.023Z,75.00
2018-07-23T23:30:16.425Z,75.50
2018-07-23T23:32:43.965Z,75.00
2018-07-23T23:35:11.309Z,75.50
2018-07-23T23:37:39.234Z,75.30
2018-07-23T23:40:06.628Z,76.10
2018-07-23T23:42:33.954Z,75.90
2018-07-23T23:45:01.303Z,75.80
2018-07-23T23:47:28.674Z,76.80
2018-07-23T23:49:56.426Z,75.80
2018-07-23T23:52:24.130Z,75.40
2018-07-23T23:54:51.453Z,75.40
2018-07-23T23:57:18.809Z,74.90
2018-07-23T23:59:46.175Z,75.10
